createdAt,value
2022-12-24T00:01:35.932Z,1.27
2022-12-24T00:04:04.078Z,1.60
2022-12-24T00:06:33.674Z,1.25
2022-12-24T00:09:01.780Z,1.30
2022-12-24T00:11:30.195Z,1.42
2022-12-24T00:13:58.394Z,1.33
2022-12-24T00:16:26.785Z,1.20
2022-12-24T00:18:55.236Z,1.25
2022-12-24T00:21:23.294Z,1.48
2022-12-24T00:23:53.239Z,1.92
2022-12-24T00:26:21.390Z,1.55
2022-12-24T00:28:49.684Z,1.70
2022-12-24T00:31:19.797Z,1.60
2022-12-24T00:33:48.888Z,1.30
2022-12-24T00:36:17.853Z,1.40
2022-12-24T00:38:46.611Z,1.52
2022-12-24T00:41:26.186Z,1.30
2022-12-24T00:43:56.051Z,0.82
2022-12-24T00:46:24.801Z,1.42
2022-12-24T00:48:53.702Z,1.38
2022-12-24T00:51:22.845Z,1.95
2022-12-24T00:53:51.882Z,1.60
2022-12-24T00:56:21.717Z,1.38
2022-12-24T00:58:50.006Z,1.65
2022-12-24T01:01:19.254Z,1.60
2022-12-24T01:03:47.904Z,1.25
2022-12-24T01:06:17.194Z,1.33
2022-12-24T01:08:45.416Z,1.00
2022-12-24T01:11:14.459Z,1.35
2022-12-24T01:13:44.069Z,1.70
2022-12-24T01:16:16.829Z,1.80
2022-12-24T01:18:45.101Z,1.60
2022-12-24T01:21:13.443Z,2.30
2022-12-24T01:23:41.606Z,1.30
2022-12-24T01:26:12.178Z,1.48
2022-12-24T01:28:40.893Z,1.33
2022-12-24T01:31:14.631Z,1.40
2022-12-24T01:33:43.688Z,1.38
2022-12-24T01:36:12.337Z,1.50
2022-12-24T01:38:41.117Z,1.10
2022-12-24T01:41:32.503Z,1.45
2022-12-24T01:44:17.186Z,1.08
2022-12-24T01:46:47.817Z,2.00
2022-12-24T01:49:18.043Z,1.23
2022-12-24T01:51:48.569Z,1.60
2022-12-24T01:54:28.526Z,1.85
2022-12-24T01:57:02.468Z,1.63
2022-12-24T01:59:31.179Z,1.45
2022-12-24T02:02:03.127Z,2.15
2022-12-24T02:04:37.168Z,1.35
2022-12-24T02:07:05.314Z,1.45
2022-12-24T02:09:34.915Z,1.52
2022-12-24T02:12:03.679Z,1.50
2022-12-24T02:14:33.047Z,1.58
2022-12-24T02:17:12.035Z,1.42
2022-12-24T02:20:27.265Z,1.40
2022-12-24T02:23:13.386Z,1.20
2022-12-24T02:26:00.741Z,1.67
2022-12-24T02:28:44.958Z,1.02
2022-12-24T02:31:21.030Z,2.08
2022-12-24T02:33:56.117Z,1.45
2022-12-24T02:36:29.357Z,1.40
2022-12-24T02:39:02.447Z,1.48
2022-12-24T02:41:54.483Z,1.50
2022-12-24T02:44:26.942Z,1.67
2022-12-24T02:49:25.062Z,1.25
2022-12-24T02:51:53.103Z,1.63
2022-12-24T02:54:21.051Z,1.45
2022-12-24T02:57:04.150Z,2.10
2022-12-24T02:59:56.154Z,1.88
2022-12-24T03:02:36.022Z,1.73
2022-12-24T03:05:13.250Z,1.15
2022-12-24T03:07:49.722Z,1.52
2022-12-24T03:10:24.916Z,1.30
2022-12-24T03:12:56.929Z,1.70
2022-12-24T03:15:27.394Z,1.95
2022-12-24T03:18:01.234Z,1.90
2022-12-24T03:20:34.717Z,1.40
2022-12-24T03:23:03.494Z,1.80
2022-12-24T03:25:33.593Z,2.00
2022-12-24T03:28:04.119Z,2.13
2022-12-24T03:30:32.382Z,2.00
2022-12-24T03:33:02.085Z,1.58
2022-12-24T03:35:30.356Z,1.75
2022-12-24T03:38:01.669Z,1.00
2022-12-24T03:40:30.189Z,1.90
2022-12-24T03:42:58.713Z,1.60
2022-12-24T03:45:28.228Z,1.30
2022-12-24T03:47:58.153Z,1.77
2022-12-24T03:50:27.756Z,3.40
2022-12-24T03:52:56.124Z,1.42
2022-12-24T03:55:24.485Z,1.73
2022-12-24T03:57:52.631Z,2.35
2022-12-24T04:00:21.652Z,1.75
2022-12-24T04:02:49.794Z,2.05
2022-12-24T04:05:20.981Z,1.88
2022-12-24T04:07:50.320Z,1.92
2022-12-24T04:10:18.433Z,1.58
2022-12-24T04:12:46.647Z,1.58
2022-12-24T04:15:14.585Z,1.85
2022-12-24T04:17:42.679Z,1.50
2022-12-24T04:20:11.796Z,2.33
2022-12-24T04:22:39.734Z,1.50
2022-12-24T04:25:10.306Z,1.48
2022-12-24T04:27:38.287Z,2.10
2022-12-24T04:30:09.236Z,1.30
2022-12-24T04:32:37.464Z,2.03
2022-12-24T04:35:06.576Z,1.75
2022-12-24T04:37:35.142Z,1.45
2022-12-24T04:40:03.240Z,1.95
2022-12-24T04:42:32.560Z,1.90
2022-12-24T04:45:00.558Z,1.80
2022-12-24T04:47:28.648Z,1.55
2022-12-24T04:49:56.639Z,2.90
2022-12-24T04:52:24.729Z,2.55
2022-12-24T04:54:52.854Z,2.28
2022-12-24T04:57:21.019Z,1.73
2022-12-24T04:59:50.644Z,1.63
2022-12-24T05:02:19.127Z,1.92
2022-12-24T05:04:47.364Z,2.25
2022-12-24T05:07:15.546Z,3.03
2022-12-24T05:09:43.625Z,2.03
2022-12-24T05:12:11.865Z,2.20
2022-12-24T05:14:40.843Z,2.42
2022-12-24T05:17:10.476Z,1.90
2022-12-24T05:19:38.648Z,2.30
2022-12-24T05:22:24.167Z,1.85
2022-12-24T05:25:09.605Z,2.20
2022-12-24T05:27:38.008Z,2.38
2022-12-24T05:30:07.543Z,2.90
2022-12-24T05:32:37.320Z,1.95
2022-12-24T05:35:06.199Z,2.95
2022-12-24T05:37:34.410Z,2.83
2022-12-24T05:40:02.860Z,1.83
2022-12-24T05:42:31.138Z,2.53
2022-12-24T05:44:59.335Z,2.17
2022-12-24T05:47:27.771Z,2.20
2022-12-24T05:49:57.358Z,2.53
2022-12-24T05:52:25.649Z,2.72
2022-12-24T05:54:53.762Z,3.15
2022-12-24T05:57:22.080Z,1.52
2022-12-24T05:59:50.175Z,2.28
2022-12-24T06:02:18.687Z,2.60
2022-12-24T06:04:47.040Z,2.15
2022-12-24T06:07:16.613Z,2.33
2022-12-24T06:09:44.754Z,2.20
2022-12-24T06:12:12.925Z,2.42
2022-12-24T06:14:41.207Z,2.35
2022-12-24T06:17:09.400Z,1.83
2022-12-24T06:19:37.650Z,3.08
2022-12-24T06:22:05.771Z,1.90
2022-12-24T06:24:35.302Z,1.88
2022-12-24T06:27:03.480Z,2.35
2022-12-24T06:29:31.641Z,3.13
2022-12-24T06:31:59.839Z,2.92
2022-12-24T06:34:28.213Z,2.42
2022-12-24T06:36:56.298Z,2.17
2022-12-24T06:39:26.474Z,3.55
2022-12-24T06:41:55.936Z,2.55
2022-12-24T06:44:24.082Z,2.35
2022-12-24T06:46:52.307Z,2.30
2022-12-24T06:49:20.404Z,2.35
2022-12-24T06:51:48.447Z,3.50
2022-12-24T06:54:18.340Z,2.42
2022-12-24T06:56:46.643Z,2.83
2022-12-24T06:59:16.207Z,2.22
2022-12-24T07:01:44.376Z,3.03
2022-12-24T07:04:19.719Z,2.30
2022-12-24T07:06:49.253Z,2.90
2022-12-24T07:09:17.317Z,2.40
2022-12-24T07:11:45.486Z,2.40
2022-12-24T07:14:15.070Z,2.17
2022-12-24T07:16:43.261Z,3.10
2022-12-24T07:19:11.400Z,2.83
2022-12-24T07:21:39.448Z,2.42
2022-12-24T07:24:08.108Z,3.30
2022-12-24T07:26:36.219Z,2.60
2022-12-24T07:29:04.350Z,2.85
2022-12-24T07:31:34.152Z,2.10
2022-12-24T07:34:02.226Z,2.17
2022-12-24T07:36:31.216Z,2.95
2022-12-24T07:39:00.217Z,2.30
2022-12-24T07:41:28.172Z,2.05
2022-12-24T07:43:56.074Z,2.38
2022-12-24T07:46:23.917Z,2.03
2022-12-24T07:48:53.482Z,2.85
2022-12-24T07:51:21.778Z,2.58
2022-12-24T07:53:49.946Z,2.50
2022-12-24T07:56:18.380Z,2.60
2022-12-24T07:58:46.368Z,3.55
2022-12-24T08:01:14.399Z,2.20
2022-12-24T08:03:42.579Z,2.75
2022-12-24T08:06:12.735Z,1.88
2022-12-24T08:08:40.666Z,2.22
2022-12-24T08:11:08.788Z,2.38
2022-12-24T08:13:36.723Z,2.40
2022-12-24T08:16:19.381Z,2.42
2022-12-24T08:21:16.736Z,2.65
2022-12-24T08:23:48.080Z,2.53
2022-12-24T08:26:19.286Z,2.00
2022-12-24T08:28:47.345Z,3.30
2022-12-24T08:31:15.865Z,2.75
2022-12-24T08:33:43.757Z,2.53
2022-12-24T08:36:11.664Z,2.53
2022-12-24T08:38:42.403Z,3.22
2022-12-24T08:41:12.220Z,2.13
2022-12-24T08:43:40.179Z,2.30
2022-12-24T08:46:08.422Z,3.03
2022-12-24T08:48:40.537Z,2.30
2022-12-24T08:51:11.748Z,3.53
2022-12-24T08:53:41.299Z,2.70
2022-12-24T08:56:13.656Z,2.72
2022-12-24T08:58:41.905Z,2.83
2022-12-24T09:01:14.563Z,2.53
2022-12-24T09:03:43.147Z,2.00
2022-12-24T09:06:12.713Z,2.75
2022-12-24T09:08:41.951Z,2.45
2022-12-24T09:11:13.354Z,3.08
2022-12-24T09:13:43.366Z,2.15
2022-12-24T09:16:13.101Z,2.45
2022-12-24T09:18:41.447Z,2.28
2022-12-24T09:21:21.662Z,2.20
2022-12-24T09:23:51.074Z,2.60
2022-12-24T09:26:21.880Z,2.38
2022-12-24T09:28:50.172Z,2.47
2022-12-24T09:31:18.203Z,3.53
2022-12-24T09:33:49.310Z,2.47
2022-12-24T09:36:18.091Z,2.58
2022-12-24T09:38:46.301Z,3.15
2022-12-24T09:41:21.921Z,2.70
2022-12-24T09:43:56.906Z,2.53
2022-12-24T09:46:31.535Z,2.45
2022-12-24T09:49:05.749Z,1.83
2022-12-24T09:51:38.022Z,2.65
2022-12-24T09:54:19.507Z,2.97
2022-12-24T09:56:52.339Z,3.00
2022-12-24T09:59:26.011Z,2.45
2022-12-24T10:01:58.605Z,2.80
2022-12-24T10:04:33.812Z,3.15
2022-12-24T10:07:11.501Z,2.65
2022-12-24T10:09:50.462Z,2.78
2022-12-24T10:12:32.357Z,2.90
2022-12-24T10:15:09.806Z,1.58
2022-12-24T10:17:49.374Z,2.35
2022-12-24T10:20:30.510Z,1.98
2022-12-24T10:23:02.873Z,2.13
2022-12-24T10:25:46.593Z,2.10
2022-12-24T10:28:19.784Z,2.10
2022-12-24T10:30:53.476Z,2.22
2022-12-24T10:33:28.898Z,3.33
2022-12-24T10:35:59.751Z,2.17
2022-12-24T10:38:28.096Z,3.08
2022-12-24T10:40:57.693Z,2.42
2022-12-24T10:43:29.846Z,2.47
2022-12-24T10:46:00.529Z,2.55
2022-12-24T10:48:31.553Z,2.40
2022-12-24T10:51:04.562Z,2.53
2022-12-24T10:53:42.030Z,2.33
2022-12-24T10:56:13.965Z,2.15
2022-12-24T10:58:50.509Z,1.95
2022-12-24T11:01:19.347Z,2.25
2022-12-24T11:04:04.375Z,2.58
2022-12-24T11:06:32.436Z,1.95
2022-12-24T11:09:21.498Z,2.30
2022-12-24T11:11:50.371Z,3.28
2022-12-24T11:14:23.587Z,2.08
2022-12-24T11:16:54.367Z,2.03
2022-12-24T11:19:31.618Z,2.13
2022-12-24T11:22:02.444Z,1.98
2022-12-24T11:24:35.801Z,2.40
2022-12-24T11:27:30.415Z,2.10
2022-12-24T11:30:23.821Z,2.45
2022-12-24T11:33:13.115Z,2.05
2022-12-24T11:35:47.686Z,2.63
2022-12-24T11:38:22.571Z,2.55
2022-12-24T11:40:57.861Z,2.30
2022-12-24T11:43:44.161Z,2.35
2022-12-24T11:46:25.990Z,2.90
2022-12-24T11:49:08.669Z,1.57
2022-12-24T11:51:37.480Z,1.98
2022-12-24T11:54:13.902Z,2.45
2022-12-24T11:56:48.844Z,1.90
2022-12-24T11:59:25.210Z,2.08
2022-12-24T12:01:59.819Z,2.30
2022-12-24T12:04:31.779Z,3.50
2022-12-24T12:07:02.648Z,3.78
2022-12-24T12:09:34.463Z,3.35
2022-12-24T12:12:08.213Z,2.45
2022-12-24T12:14:42.804Z,1.90
2022-12-24T12:17:26.387Z,2.47
2022-12-24T12:19:58.874Z,3.70
2022-12-24T12:25:03.765Z,4.32
2022-12-24T12:27:40.774Z,3.25
2022-12-24T12:30:17.786Z,6.50
2022-12-24T12:32:53.356Z,2.80
2022-12-24T12:35:25.957Z,2.70
2022-12-24T12:37:59.658Z,3.97
2022-12-24T12:40:46.714Z,2.72
2022-12-24T12:43:29.484Z,2.50
2022-12-24T12:46:04.208Z,4.90
2022-12-24T12:48:50.612Z,2.33
2022-12-24T12:51:32.359Z,2.45
2022-12-24T12:54:21.170Z,2.90
2022-12-24T12:56:52.469Z,2.60
2022-12-24T12:59:24.718Z,5.10
2022-12-24T13:02:05.999Z,2.97
2022-12-24T13:05:15.281Z,4.07
2022-12-24T13:08:13.584Z,3.47
2022-12-24T13:11:01.924Z,2.92
2022-12-24T13:13:55.029Z,2.28
2022-12-24T13:16:56.492Z,2.42
2022-12-24T13:19:41.304Z,2.80
2022-12-24T13:22:17.700Z,2.70
2022-12-24T13:24:52.952Z,2.58
2022-12-24T13:27:25.419Z,2.80
2022-12-24T13:32:56.015Z,3.17
2022-12-24T13:35:38.879Z,2.75
2022-12-24T13:38:45.947Z,3.63
2022-12-24T13:41:59.528Z,2.72
2022-12-24T13:44:35.108Z,2.58
2022-12-24T13:47:18.358Z,3.17
2022-12-24T13:49:50.313Z,2.88
2022-12-24T13:52:28.430Z,3.13
2022-12-24T13:55:17.949Z,3.78
2022-12-24T13:57:54.287Z,2.58
2022-12-24T14:00:39.054Z,2.83
2022-12-24T14:03:19.974Z,2.72
2022-12-24T14:05:52.041Z,3.72
2022-12-24T14:08:31.215Z,2.22
2022-12-24T14:11:05.117Z,2.50
2022-12-24T14:13:56.585Z,2.47
2022-12-24T14:16:32.616Z,3.17
2022-12-24T14:19:02.635Z,2.28
2022-12-24T14:23:50.934Z,2.72
2022-12-24T14:25:05.871Z,2.33
2022-12-24T14:28:04.535Z,2.30
2022-12-24T14:33:47.728Z,2.55
2022-12-24T14:36:21.471Z,2.30
2022-12-24T14:38:49.857Z,2.35
2022-12-24T14:41:31.246Z,2.00
2022-12-24T14:44:09.305Z,3.60
2022-12-24T14:46:48.186Z,3.72
2022-12-24T14:49:29.245Z,3.00
2022-12-24T14:52:18.346Z,2.38
2022-12-24T14:54:55.694Z,3.17
2022-12-24T14:57:26.551Z,2.80
2022-12-24T14:59:58.993Z,2.40
2022-12-24T15:05:10.261Z,8.82
2022-12-24T15:07:47.133Z,3.20
2022-12-24T15:10:30.350Z,3.83
2022-12-24T15:13:02.710Z,7.40
2022-12-24T15:15:31.104Z,4.90
2022-12-24T15:18:00.034Z,15.85
2022-12-24T15:20:31.377Z,4.75
2022-12-24T15:23:00.119Z,4.88
2022-12-24T15:25:29.866Z,3.50
2022-12-24T15:27:58.334Z,6.55
2022-12-24T15:30:29.467Z,5.90
2022-12-24T15:32:59.074Z,4.30
2022-12-24T15:35:54.301Z,5.65
2022-12-24T15:38:33.945Z,3.90
2022-12-24T15:41:03.624Z,7.20
2022-12-24T15:43:32.669Z,6.53
2022-12-24T15:46:01.927Z,5.20
2022-12-24T15:48:32.738Z,3.22
2022-12-24T15:51:06.386Z,2.60
2022-12-24T15:53:39.491Z,3.70
2022-12-24T15:56:10.565Z,5.00
2022-12-24T15:58:45.333Z,10.27
2022-12-24T16:01:30.221Z,6.03
2022-12-24T16:04:00.297Z,3.50
2022-12-24T16:06:49.810Z,3.85
2022-12-24T16:09:43.462Z,3.92
2022-12-24T16:12:19.860Z,3.47
2022-12-24T16:14:52.858Z,3.75
2022-12-24T16:17:27.514Z,3.97
2022-12-24T16:19:58.311Z,3.38
2022-12-24T16:22:35.212Z,4.13
2022-12-24T16:25:22.946Z,3.63
2022-12-24T16:28:03.576Z,3.65
2022-12-24T16:30:35.262Z,3.47
2022-12-24T16:33:03.321Z,4.13
2022-12-24T16:35:36.616Z,4.15
2022-12-24T16:38:06.825Z,3.33
2022-12-24T16:40:34.740Z,4.07
2022-12-24T16:43:20.254Z,3.67
2022-12-24T16:45:48.861Z,3.83
2022-12-24T16:48:23.089Z,4.82
2022-12-24T16:50:51.809Z,4.55
2022-12-24T16:53:22.741Z,5.18
2022-12-24T16:55:51.873Z,5.80
2022-12-24T16:58:20.951Z,26.25
2022-12-24T17:00:54.047Z,4.78
2022-12-24T17:03:22.119Z,6.10
2022-12-24T17:05:50.161Z,5.47
2022-12-24T17:08:18.235Z,5.47
2022-12-24T17:10:54.957Z,4.45
2022-12-24T17:13:26.924Z,4.93
2022-12-24T17:15:58.053Z,4.57
2022-12-24T17:18:26.085Z,6.53
2022-12-24T17:21:00.840Z,4.60
2022-12-24T17:23:29.499Z,4.78
2022-12-24T17:25:58.845Z,7.72
2022-12-24T17:28:29.833Z,4.95
2022-12-24T17:31:00.815Z,6.18
2022-12-24T17:33:28.789Z,6.78
2022-12-24T17:35:56.631Z,6.85
2022-12-24T17:38:26.955Z,5.78
2022-12-24T17:41:02.061Z,5.47
2022-12-24T17:43:30.734Z,5.63
2022-12-24T17:45:58.646Z,5.05
2022-12-24T17:48:26.894Z,6.22
2022-12-24T17:50:57.560Z,5.95
2022-12-24T17:53:28.564Z,6.15
2022-12-24T17:55:58.079Z,7.03
2022-12-24T17:58:27.423Z,8.32
2022-12-24T18:00:56.255Z,6.93
2022-12-24T18:03:27.531Z,7.18
2022-12-24T18:05:55.458Z,6.10
2022-12-24T18:08:29.372Z,6.85
2022-12-24T18:10:57.252Z,6.63
2022-12-24T18:13:25.317Z,6.65
2022-12-24T18:15:54.675Z,6.72
2022-12-24T18:18:22.837Z,5.93
2022-12-24T18:20:50.871Z,6.47
2022-12-24T18:23:21.401Z,5.50
2022-12-24T18:25:49.243Z,6.85
2022-12-24T18:28:17.226Z,6.20
2022-12-24T18:30:45.350Z,6.10
2022-12-24T18:33:14.721Z,5.95
2022-12-24T18:35:45.513Z,5.70
2022-12-24T18:38:13.754Z,5.57
2022-12-24T18:40:41.941Z,5.03
2022-12-24T18:43:09.945Z,4.25
2022-12-24T18:45:41.830Z,6.53
2022-12-24T18:48:14.634Z,4.85
2022-12-24T18:50:42.713Z,4.43
2022-12-24T18:53:11.480Z,4.63
2022-12-24T18:55:42.108Z,5.05
2022-12-24T18:58:10.120Z,5.07
2022-12-24T19:00:38.178Z,3.95
2022-12-24T19:03:06.244Z,4.78
2022-12-24T19:05:35.829Z,4.60
2022-12-24T19:08:22.230Z,4.32
2022-12-24T19:10:54.333Z,4.68
2022-12-24T19:13:24.062Z,4.90
2022-12-24T19:15:52.254Z,3.75
2022-12-24T19:18:20.345Z,4.97
2022-12-24T19:20:49.707Z,4.03
2022-12-24T19:23:17.817Z,4.78
2022-12-24T19:25:45.851Z,4.60
2022-12-24T19:28:13.868Z,4.25
2022-12-24T19:30:43.321Z,4.70
2022-12-24T19:33:11.609Z,5.72
2022-12-24T19:35:39.684Z,4.80
2022-12-24T19:38:09.106Z,4.53
2022-12-24T19:40:40.647Z,4.22
2022-12-24T19:43:08.666Z,5.38
2022-12-24T19:45:36.691Z,5.40
2022-12-24T19:48:05.139Z,5.20
2022-12-24T19:50:35.836Z,4.65
2022-12-24T19:53:04.354Z,4.72
2022-12-24T19:55:33.755Z,5.20
2022-12-24T19:58:01.747Z,4.78
2022-12-24T20:00:29.657Z,5.10
2022-12-24T20:03:07.074Z,4.72
2022-12-24T20:05:46.695Z,4.68
2022-12-24T20:08:17.472Z,5.22
2022-12-24T20:10:49.800Z,4.93
2022-12-24T20:13:21.795Z,5.68
2022-12-24T20:15:49.944Z,5.60
2022-12-24T20:18:18.042Z,4.97
2022-12-24T20:20:46.612Z,5.45
2022-12-24T20:23:14.617Z,6.20
2022-12-24T20:25:47.989Z,5.63
2022-12-24T20:28:20.440Z,5.57
2022-12-24T20:33:20.195Z,5.22
2022-12-24T20:35:48.532Z,5.55
2022-12-24T20:38:16.515Z,18.45
2022-12-24T20:40:45.405Z,8.38
2022-12-24T20:43:20.983Z,5.05
2022-12-24T20:45:57.915Z,4.38
2022-12-24T20:48:26.330Z,5.63
2022-12-24T20:50:54.401Z,4.43
2022-12-24T20:53:28.969Z,5.38
2022-12-24T20:55:58.607Z,4.40
2022-12-24T20:58:26.560Z,4.07
2022-12-24T21:00:56.137Z,5.50
2022-12-24T21:03:26.158Z,5.40
2022-12-24T21:05:57.153Z,5.22
2022-12-24T21:08:25.613Z,5.97
2022-12-24T21:11:14.096Z,5.32
2022-12-24T21:13:41.525Z,5.07
2022-12-24T21:16:10.998Z,8.27
2022-12-24T21:18:41.494Z,6.43
2022-12-24T21:21:11.646Z,5.32
2022-12-24T21:23:39.702Z,6.22
2022-12-24T21:26:07.804Z,6.35
2022-12-24T21:28:35.814Z,5.47
2022-12-24T21:31:08.578Z,6.07
2022-12-24T21:33:38.713Z,6.25
2022-12-24T21:36:07.545Z,6.22
2022-12-24T21:38:36.490Z,5.47
2022-12-24T21:41:06.316Z,5.45
2022-12-24T21:43:36.284Z,5.60
2022-12-24T21:46:08.010Z,6.22
2022-12-24T21:48:55.759Z,5.57
2022-12-24T21:51:24.921Z,5.25
2022-12-24T21:54:15.082Z,5.18
2022-12-24T21:57:00.761Z,5.80
2022-12-24T21:59:28.982Z,5.75
2022-12-24T22:01:58.116Z,7.32
2022-12-24T22:04:27.975Z,5.22
2022-12-24T22:07:13.436Z,5.32
2022-12-24T22:09:59.405Z,5.57
2022-12-24T22:12:30.321Z,5.45
2022-12-24T22:14:58.540Z,5.35
2022-12-24T22:17:27.110Z,5.45
2022-12-24T22:19:57.058Z,5.63
2022-12-24T22:22:25.614Z,5.20
2022-12-24T22:24:53.728Z,5.55
2022-12-24T22:27:21.889Z,5.28
2022-12-24T22:29:50.061Z,5.07
2022-12-24T22:32:18.300Z,5.13
2022-12-24T22:34:50.666Z,5.18
2022-12-24T22:37:20.767Z,5.50
2022-12-24T22:39:49.069Z,6.00
2022-12-24T22:42:17.292Z,6.15
2022-12-24T22:44:45.348Z,5.10
2022-12-24T22:47:13.481Z,5.45
2022-12-24T22:49:41.658Z,5.50
2022-12-24T22:52:09.686Z,5.53
2022-12-24T22:54:39.847Z,5.55
2022-12-24T22:57:08.137Z,5.57
2022-12-24T22:59:36.274Z,5.60
2022-12-24T23:02:06.032Z,5.70
2022-12-24T23:04:36.668Z,5.47
2022-12-24T23:07:05.258Z,5.28
2022-12-24T23:09:33.888Z,5.13
2022-12-24T23:12:03.185Z,4.80
2022-12-24T23:14:48.623Z,4.97
2022-12-24T23:17:16.600Z,4.63
2022-12-24T23:19:44.511Z,4.53
2022-12-24T23:22:12.855Z,5.30
2022-12-24T23:24:41.334Z,5.80
2022-12-24T23:27:10.729Z,4.70
2022-12-24T23:29:38.654Z,4.78
2022-12-24T23:32:06.748Z,4.30
2022-12-24T23:34:34.679Z,4.45
2022-12-24T23:37:02.520Z,5.13
2022-12-24T23:39:34.172Z,4.95
2022-12-24T23:42:02.264Z,4.43
2022-12-24T23:44:32.811Z,4.45
2022-12-24T23:47:01.008Z,4.35
2022-12-24T23:49:29.096Z,4.38
2022-12-24T23:51:57.057Z,4.22
2022-12-24T23:54:25.002Z,4.00
2022-12-24T23:56:52.915Z,3.92
2022-12-24T23:59:20.807Z,4.72
